Carrington, North Dakota
Current Conditions -  °F | °C
As of 11:35 PM on Tuesday 25 Nov 2014 (Local Time) from K46D Reporting Station
Light Snow Light Snow  
Wind Chill: -9°   Ceiling: 600
Heat Index: 10°   Visibility: 3mi
Dew Point: 10°   Wind: 22mph
Humidity: 100%   Direction: 30°NNE
Pressure: 30.1"   Gusts: NA
Location:  47.45°N, 99.13°W
Report Text: K46D 260535Z AUTO 03019KT 3SM -SN BKN006 OVC035 M12/M12 A3010 RMK AO2 P0001
Loading
Personal Weather Stations






























Interactive Weather Map New forecast layout! Learn more

10-Day Weather Forecast

Advertisements
Track Severe Weather on mobile